sensor_id;sensor_type;location;lat;lon;timestamp;temperature;humidity
52867;DHT22;38739;53.324;6.862;2023-01-16T00:01:10;4.50;99.90
52867;DHT22;38739;53.324;6.862;2023-01-16T00:03:36;4.50;99.90
52867;DHT22;38739;53.324;6.862;2023-01-16T00:06:01;4.50;99.90
52867;DHT22;38739;53.324;6.862;2023-01-16T00:08:27;4.50;99.90
52867;DHT22;38739;53.324;6.862;2023-01-16T00:10:53;4.40;99.90
52867;DHT22;38739;53.324;6.862;2023-01-16T00:13:19;4.40;99.90
52867;DHT22;38739;53.324;6.862;2023-01-16T00:15:46;4.40;99.90
52867;DHT22;38739;53.324;6.862;2023-01-16T00:18:12;4.30;99.90
52867;DHT22;38739;53.324;6.862;2023-01-16T00:20:38;4.30;99.90
52867;DHT22;38739;53.324;6.862;2023-01-16T00:23:03;4.30;99.90
52867;DHT22;38739;53.324;6.862;2023-01-16T00:25:29;4.30;99.90
52867;DHT22;38739;53.324;6.862;2023-01-16T00:27:55;4.30;99.90
52867;DHT22;38739;53.324;6.862;2023-01-16T00:30:20;4.30;99.90
52867;DHT22;38739;53.324;6.862;2023-01-16T00:32:46;4.40;99.90
52867;DHT22;38739;53.324;6.862;2023-01-16T00:35:12;4.40;99.90
52867;DHT22;38739;53.324;6.862;2023-01-16T00:37:38;4.40;99.90
52867;DHT22;38739;53.324;6.862;2023-01-16T00:40:04;4.40;99.90
52867;DHT22;38739;53.324;6.862;2023-01-16T00:42:30;4.40;99.90
52867;DHT22;38739;53.324;6.862;2023-01-16T00:44:56;4.50;99.90
52867;DHT22;38739;53.324;6.862;2023-01-16T00:47:21;4.40;99.90
52867;DHT22;38739;53.324;6.862;2023-01-16T00:49:47;4.40;99.90
52867;DHT22;38739;53.324;6.862;2023-01-16T00:52:13;4.40;99.90
52867;DHT22;38739;53.324;6.862;2023-01-16T00:54:38;4.40;99.90
52867;DHT22;38739;53.324;6.862;2023-01-16T00:57:04;4.40;99.90
52867;DHT22;38739;53.324;6.862;2023-01-16T00:59:30;4.40;99.90
52867;DHT22;38739;53.324;6.862;2023-01-16T01:01:55;4.40;99.90
52867;DHT22;38739;53.324;6.862;2023-01-16T01:04:21;4.40;99.90
52867;DHT22;38739;53.324;6.862;2023-01-16T01:06:47;4.40;99.90
52867;DHT22;38739;53.324;6.862;2023-01-16T01:09:12;4.40;99.90
52867;DHT22;38739;53.324;6.862;2023-01-16T01:11:38;4.40;99.90
52867;DHT22;38739;53.324;6.862;2023-01-16T01:14:04;4.40;99.90
52867;DHT22;38739;53.324;6.862;2023-01-16T01:16:30;4.30;99.90
52867;DHT22;38739;53.324;6.862;2023-01-16T01:18:56;4.30;99.90
52867;DHT22;38739;53.324;6.862;2023-01-16T01:21:21;4.30;99.90
52867;DHT22;38739;53.324;6.862;2023-01-16T01:23:47;4.20;99.90
52867;DHT22;38739;53.324;6.862;2023-01-16T01:26:15;4.20;99.90
52867;DHT22;38739;53.324;6.862;2023-01-16T01:28:41;4.10;99.90
52867;DHT22;38739;53.324;6.862;2023-01-16T01:31:10;4.00;99.90
52867;DHT22;38739;53.324;6.862;2023-01-16T01:33:36;4.00;99.90
52867;DHT22;38739;53.324;6.862;2023-01-16T01:36:03;3.90;99.90
52867;DHT22;38739;53.324;6.862;2023-01-16T01:38:29;3.90;99.90
52867;DHT22;38739;53.324;6.862;2023-01-16T01:40:55;3.80;99.90
52867;DHT22;38739;53.324;6.862;2023-01-16T01:43:21;3.70;99.90
52867;DHT22;38739;53.324;6.862;2023-01-16T01:45:50;3.70;99.90
52867;DHT22;38739;53.324;6.862;2023-01-16T01:48:22;3.70;99.90
52867;DHT22;38739;53.324;6.862;2023-01-16T01:53:25;3.70;99.90
52867;DHT22;38739;53.324;6.862;2023-01-16T01:55:53;3.70;99.90
52867;DHT22;38739;53.324;6.862;2023-01-16T01:58:22;3.70;99.90
52867;DHT22;38739;53.324;6.862;2023-01-16T02:00:53;3.70;99.90
52867;DHT22;38739;53.324;6.862;2023-01-16T02:03:40;3.70;99.90
52867;DHT22;38739;53.324;6.862;2023-01-16T02:06:12;3.70;99.90
52867;DHT22;38739;53.324;6.862;2023-01-16T02:08:39;3.70;99.90
52867;DHT22;38739;53.324;6.862;2023-01-16T02:11:14;3.60;99.90
52867;DHT22;38739;53.324;6.862;2023-01-16T02:14:00;3.70;99.90
52867;DHT22;38739;53.324;6.862;2023-01-16T02:16:27;3.70;99.90
52867;DHT22;38739;53.324;6.862;2023-01-16T02:19:23;3.70;99.90
52867;DHT22;38739;53.324;6.862;2023-01-16T02:27:45;3.70;99.90
52867;DHT22;38739;53.324;6.862;2023-01-16T02:33:05;3.70;99.90
52867;DHT22;38739;53.324;6.862;2023-01-16T02:38:41;3.70;99.90
52867;DHT22;38739;53.324;6.862;2023-01-16T02:41:24;3.70;99.90
52867;DHT22;38739;53.324;6.862;2023-01-16T02:43:59;3.70;99.90
52867;DHT22;38739;53.324;6.862;2023-01-16T02:46:45;3.70;99.90
52867;DHT22;38739;53.324;6.862;2023-01-16T02:49:36;3.80;99.90
52867;DHT22;38739;53.324;6.862;2023-01-16T02:52:15;3.80;99.90
52867;DHT22;38739;53.324;6.862;2023-01-16T02:54:46;3.80;99.90
52867;DHT22;38739;53.324;6.862;2023-01-16T02:57:19;3.80;99.90
52867;DHT22;38739;53.324;6.862;2023-01-16T02:59:45;3.80;99.90
52867;DHT22;38739;53.324;6.862;2023-01-16T03:02:13;3.80;99.90
52867;DHT22;38739;53.324;6.862;2023-01-16T03:10:29;3.90;99.90
52867;DHT22;38739;53.324;6.862;2023-01-16T03:15:42;3.90;99.90
52867;DHT22;38739;53.324;6.862;2023-01-16T03:36:57;4.00;99.90
52867;DHT22;38739;53.324;6.862;2023-01-16T03:39:28;4.10;99.90
52867;DHT22;38739;53.324;6.862;2023-01-16T03:42:01;4.10;99.90
52867;DHT22;38739;53.324;6.862;2023-01-16T03:44:36;4.10;99.90
52867;DHT22;38739;53.324;6.862;2023-01-16T03:47:14;4.10;99.90
52867;DHT22;38739;53.324;6.862;2023-01-16T03:49:47;4.10;99.90
52867;DHT22;38739;53.324;6.862;2023-01-16T03:52:17;4.10;99.90
52867;DHT22;38739;53.324;6.862;2023-01-16T03:57:45;4.10;99.90
52867;DHT22;38739;53.324;6.862;2023-01-16T04:00:12;4.10;99.90
52867;DHT22;38739;53.324;6.862;2023-01-16T04:07:54;4.10;99.90
52867;DHT22;38739;53.324;6.862;2023-01-16T04:10:30;4.10;99.90
52867;DHT22;38739;53.324;6.862;2023-01-16T04:13:08;4.10;99.90
52867;DHT22;38739;53.324;6.862;2023-01-16T04:15:47;4.20;99.90
52867;DHT22;38739;53.324;6.862;2023-01-16T04:18:14;4.10;99.90
52867;DHT22;38739;53.324;6.862;2023-01-16T04:20:43;4.10;99.90
52867;DHT22;38739;53.324;6.862;2023-01-16T04:23:09;4.10;99.90
52867;DHT22;38739;53.324;6.862;2023-01-16T04:25:36;4.10;99.90
52867;DHT22;38739;53.324;6.862;2023-01-16T04:28:02;4.10;99.90
52867;DHT22;38739;53.324;6.862;2023-01-16T04:30:28;4.10;99.90
52867;DHT22;38739;53.324;6.862;2023-01-16T04:32:53;4.10;99.90
52867;DHT22;38739;53.324;6.862;2023-01-16T04:35:19;4.10;99.90
52867;DHT22;38739;53.324;6.862;2023-01-16T04:37:45;4.10;99.90
52867;DHT22;38739;53.324;6.862;2023-01-16T04:40:11;4.10;99.90
52867;DHT22;38739;53.324;6.862;2023-01-16T04:42:37;4.20;99.90
52867;DHT22;38739;53.324;6.862;2023-01-16T04:45:03;4.20;99.90
52867;DHT22;38739;53.324;6.862;2023-01-16T04:47:29;4.20;99.90
52867;DHT22;38739;53.324;6.862;2023-01-16T04:49:55;4.20;99.90
52867;DHT22;38739;53.324;6.862;2023-01-16T04:52:20;4.20;99.90
52867;DHT22;38739;53.324;6.862;2023-01-16T04:54:46;4.20;99.90
52867;DHT22;38739;53.324;6.862;2023-01-16T04:57:12;4.20;99.90
52867;DHT22;38739;53.324;6.862;2023-01-16T04:59:37;4.20;99.90
52867;DHT22;38739;53.324;6.862;2023-01-16T05:02:03;4.20;99.90
52867;DHT22;38739;53.324;6.862;2023-01-16T05:04:28;4.20;99.90
52867;DHT22;38739;53.324;6.862;2023-01-16T05:06:54;4.30;99.90
52867;DHT22;38739;53.324;6.862;2023-01-16T05:09:20;4.20;99.90
52867;DHT22;38739;53.324;6.862;2023-01-16T05:11:45;4.20;99.90
52867;DHT22;38739;53.324;6.862;2023-01-16T05:14:11;4.10;99.90
52867;DHT22;38739;53.324;6.862;2023-01-16T05:16:38;4.10;99.90
52867;DHT22;38739;53.324;6.862;2023-01-16T05:19:06;4.10;99.90
52867;DHT22;38739;53.324;6.862;2023-01-16T05:21:31;4.00;99.90
52867;DHT22;38739;53.324;6.862;2023-01-16T05:23:57;4.00;99.90
52867;DHT22;38739;53.324;6.862;2023-01-16T05:26:23;3.90;99.90
52867;DHT22;38739;53.324;6.862;2023-01-16T05:28:49;3.90;99.90
52867;DHT22;38739;53.324;6.862;2023-01-16T05:31:15;3.80;99.90
52867;DHT22;38739;53.324;6.862;2023-01-16T05:33:41;3.80;99.90
52867;DHT22;38739;53.324;6.862;2023-01-16T05:36:07;3.80;99.90
52867;DHT22;38739;53.324;6.862;2023-01-16T05:38:33;3.80;99.90
52867;DHT22;38739;53.324;6.862;2023-01-16T05:40:58;3.80;99.90
52867;DHT22;38739;53.324;6.862;2023-01-16T05:43:24;3.80;99.90
52867;DHT22;38739;53.324;6.862;2023-01-16T05:45:50;3.80;99.90
52867;DHT22;38739;53.324;6.862;2023-01-16T05:48:15;3.80;99.90
52867;DHT22;38739;53.324;6.862;2023-01-16T05:50:41;3.80;99.90
52867;DHT22;38739;53.324;6.862;2023-01-16T05:53:07;3.70;99.90
52867;DHT22;38739;53.324;6.862;2023-01-16T05:55:41;3.70;99.90
52867;DHT22;38739;53.324;6.862;2023-01-16T05:58:12;3.70;99.90
52867;DHT22;38739;53.324;6.862;2023-01-16T06:00:39;3.70;99.90
52867;DHT22;38739;53.324;6.862;2023-01-16T06:03:05;3.60;99.90
52867;DHT22;38739;53.324;6.862;2023-01-16T06:05:30;3.60;99.90
52867;DHT22;38739;53.324;6.862;2023-01-16T06:07:56;3.60;99.90
52867;DHT22;38739;53.324;6.862;2023-01-16T06:10:23;3.60;99.90
52867;DHT22;38739;53.324;6.862;2023-01-16T06:12:49;3.60;99.90
52867;DHT22;38739;53.324;6.862;2023-01-16T06:15:15;3.50;99.90
52867;DHT22;38739;53.324;6.862;2023-01-16T06:17:40;3.50;99.90
52867;DHT22;38739;53.324;6.862;2023-01-16T06:20:06;3.50;99.90
52867;DHT22;38739;53.324;6.862;2023-01-16T06:22:32;3.40;99.90
52867;DHT22;38739;53.324;6.862;2023-01-16T06:24:58;3.40;99.90
52867;DHT22;38739;53.324;6.862;2023-01-16T06:27:24;3.30;99.90
52867;DHT22;38739;53.324;6.862;2023-01-16T06:29:49;3.30;99.90
52867;DHT22;38739;53.324;6.862;2023-01-16T06:32:15;3.30;99.90
52867;DHT22;38739;53.324;6.862;2023-01-16T06:34:42;3.30;99.90
52867;DHT22;38739;53.324;6.862;2023-01-16T06:37:08;3.20;99.90
52867;DHT22;38739;53.324;6.862;2023-01-16T06:39:34;3.30;99.90
52867;DHT22;38739;53.324;6.862;2023-01-16T06:42:00;3.20;99.90
52867;DHT22;38739;53.324;6.862;2023-01-16T06:44:28;3.30;99.90
52867;DHT22;38739;53.324;6.862;2023-01-16T06:46:54;3.30;99.90
52867;DHT22;38739;53.324;6.862;2023-01-16T06:49:20;3.40;99.90
52867;DHT22;38739;53.324;6.862;2023-01-16T06:51:45;3.40;99.90
52867;DHT22;38739;53.324;6.862;2023-01-16T06:54:11;3.40;99.90
52867;DHT22;38739;53.324;6.862;2023-01-16T06:56:37;3.40;99.90
52867;DHT22;38739;53.324;6.862;2023-01-16T06:59:03;3.40;99.90
52867;DHT22;38739;53.324;6.862;2023-01-16T07:01:29;3.40;99.90
52867;DHT22;38739;53.324;6.862;2023-01-16T07:03:54;3.40;99.90
52867;DHT22;38739;53.324;6.862;2023-01-16T07:06:20;3.40;99.90
52867;DHT22;38739;53.324;6.862;2023-01-16T07:08:48;3.40;99.90
52867;DHT22;38739;53.324;6.862;2023-01-16T07:11:16;3.30;99.90
52867;DHT22;38739;53.324;6.862;2023-01-16T07:13:42;3.30;99.90
52867;DHT22;38739;53.324;6.862;2023-01-16T07:16:13;3.30;99.90
52867;DHT22;38739;53.324;6.862;2023-01-16T07:18:57;3.30;99.90
52867;DHT22;38739;53.324;6.862;2023-01-16T07:21:43;3.30;99.90
52867;DHT22;38739;53.324;6.862;2023-01-16T07:24:30;3.30;99.90
52867;DHT22;38739;53.324;6.862;2023-01-16T07:27:00;3.30;99.90
52867;DHT22;38739;53.324;6.862;2023-01-16T07:29:30;3.30;99.90
52867;DHT22;38739;53.324;6.862;2023-01-16T07:31:57;3.20;99.90
52867;DHT22;38739;53.324;6.862;2023-01-16T07:34:23;3.20;99.90
52867;DHT22;38739;53.324;6.862;2023-01-16T07:36:49;3.20;99.90
52867;DHT22;38739;53.324;6.862;2023-01-16T07:39:14;3.20;99.90
52867;DHT22;38739;53.324;6.862;2023-01-16T07:41:40;3.20;99.90
52867;DHT22;38739;53.324;6.862;2023-01-16T07:44:06;3.20;99.90
52867;DHT22;38739;53.324;6.862;2023-01-16T07:46:32;3.20;99.90
52867;DHT22;38739;53.324;6.862;2023-01-16T07:48:58;3.20;99.90
52867;DHT22;38739;53.324;6.862;2023-01-16T07:51:24;3.20;99.90
52867;DHT22;38739;53.324;6.862;2023-01-16T07:53:50;3.20;99.90
52867;DHT22;38739;53.324;6.862;2023-01-16T07:56:16;3.20;99.90
52867;DHT22;38739;53.324;6.862;2023-01-16T07:58:42;3.20;99.90
52867;DHT22;38739;53.324;6.862;2023-01-16T08:01:09;3.20;99.90
52867;DHT22;38739;53.324;6.862;2023-01-16T08:03:35;3.20;99.90
52867;DHT22;38739;53.324;6.862;2023-01-16T08:06:01;3.20;99.90
52867;DHT22;38739;53.324;6.862;2023-01-16T08:08:28;3.20;99.90
52867;DHT22;38739;53.324;6.862;2023-01-16T08:10:55;3.20;99.90
52867;DHT22;38739;53.324;6.862;2023-01-16T08:13:21;3.20;99.90
52867;DHT22;38739;53.324;6.862;2023-01-16T08:15:46;3.20;99.90
52867;DHT22;38739;53.324;6.862;2023-01-16T08:18:12;3.20;99.90
52867;DHT22;38739;53.324;6.862;2023-01-16T08:20:39;3.20;99.90
52867;DHT22;38739;53.324;6.862;2023-01-16T08:23:06;3.30;99.90
52867;DHT22;38739;53.324;6.862;2023-01-16T08:25:32;3.30;99.90
52867;DHT22;38739;53.324;6.862;2023-01-16T08:27:57;3.30;99.90
52867;DHT22;38739;53.324;6.862;2023-01-16T08:30:23;3.30;99.90
52867;DHT22;38739;53.324;6.862;2023-01-16T08:32:49;3.30;99.90
52867;DHT22;38739;53.324;6.862;2023-01-16T08:35:14;3.30;99.90
52867;DHT22;38739;53.324;6.862;2023-01-16T08:37:48;3.40;99.90
52867;DHT22;38739;53.324;6.862;2023-01-16T08:40:14;3.40;99.90
52867;DHT22;38739;53.324;6.862;2023-01-16T08:42:40;3.40;99.90
52867;DHT22;38739;53.324;6.862;2023-01-16T08:45:24;3.40;99.90
52867;DHT22;38739;53.324;6.862;2023-01-16T08:48:09;3.50;99.90
52867;DHT22;38739;53.324;6.862;2023-01-16T08:50:54;3.50;99.90
52867;DHT22;38739;53.324;6.862;2023-01-16T08:53:40;3.50;99.90
52867;DHT22;38739;53.324;6.862;2023-01-16T08:56:06;3.50;99.90
52867;DHT22;38739;53.324;6.862;2023-01-16T08:58:31;3.60;99.90
52867;DHT22;38739;53.324;6.862;2023-01-16T09:00:57;3.60;99.90
52867;DHT22;38739;53.324;6.862;2023-01-16T09:03:23;3.60;99.90
52867;DHT22;38739;53.324;6.862;2023-01-16T09:05:48;3.70;99.90
52867;DHT22;38739;53.324;6.862;2023-01-16T09:08:14;3.70;99.90
52867;DHT22;38739;53.324;6.862;2023-01-16T09:10:40;3.70;99.90
52867;DHT22;38739;53.324;6.862;2023-01-16T09:13:25;3.80;99.90
52867;DHT22;38739;53.324;6.862;2023-01-16T09:16:09;3.80;99.90
52867;DHT22;38739;53.324;6.862;2023-01-16T09:18:35;3.80;99.90
52867;DHT22;38739;53.324;6.862;2023-01-16T09:21:02;3.80;99.90
52867;DHT22;38739;53.324;6.862;2023-01-16T09:23:28;3.90;99.90
52867;DHT22;38739;53.324;6.862;2023-01-16T09:25:53;3.90;99.90
52867;DHT22;38739;53.324;6.862;2023-01-16T09:28:19;3.90;99.90
52867;DHT22;38739;53.324;6.862;2023-01-16T09:30:45;3.90;99.90
52867;DHT22;38739;53.324;6.862;2023-01-16T09:33:10;3.90;99.90
52867;DHT22;38739;53.324;6.862;2023-01-16T09:35:36;3.90;99.90
52867;DHT22;38739;53.324;6.862;2023-01-16T09:38:02;3.90;99.90
52867;DHT22;38739;53.324;6.862;2023-01-16T09:40:27;3.90;99.90
52867;DHT22;38739;53.324;6.862;2023-01-16T09:45:57;4.00;99.90
52867;DHT22;38739;53.324;6.862;2023-01-16T09:48:54;4.00;99.90
52867;DHT22;38739;53.324;6.862;2023-01-16T09:51:42;4.00;99.90
52867;DHT22;38739;53.324;6.862;2023-01-16T09:54:35;4.00;99.90
52867;DHT22;38739;53.324;6.862;2023-01-16T09:57:21;4.00;99.90
52867;DHT22;38739;53.324;6.862;2023-01-16T10:00:07;4.00;99.90
52867;DHT22;38739;53.324;6.862;2023-01-16T10:02:34;4.00;99.90
52867;DHT22;38739;53.324;6.862;2023-01-16T10:05:02;4.00;99.90
52867;DHT22;38739;53.324;6.862;2023-01-16T10:07:49;4.00;99.90
52867;DHT22;38739;53.324;6.862;2023-01-16T10:15:50;4.10;99.90
52867;DHT22;38739;53.324;6.862;2023-01-16T10:18:34;4.10;99.90
52867;DHT22;38739;53.324;6.862;2023-01-16T10:24:21;4.10;99.90
52867;DHT22;38739;53.324;6.862;2023-01-16T10:27:00;4.10;99.90
52867;DHT22;38739;53.324;6.862;2023-01-16T10:29:39;4.10;99.90
52867;DHT22;38739;53.324;6.862;2023-01-16T10:37:37;4.10;99.90
52867;DHT22;38739;53.324;6.862;2023-01-16T10:40:30;4.10;99.90
52867;DHT22;38739;53.324;6.862;2023-01-16T10:43:06;4.20;99.90
52867;DHT22;38739;53.324;6.862;2023-01-16T10:45:54;4.20;99.90
52867;DHT22;38739;53.324;6.862;2023-01-16T10:48:40;4.20;99.90
52867;DHT22;38739;53.324;6.862;2023-01-16T10:51:24;4.20;99.90
52867;DHT22;38739;53.324;6.862;2023-01-16T10:53:50;4.20;99.90
52867;DHT22;38739;53.324;6.862;2023-01-16T10:56:15;4.20;99.90
52867;DHT22;38739;53.324;6.862;2023-01-16T10:58:41;4.20;99.90
52867;DHT22;38739;53.324;6.862;2023-01-16T11:01:15;4.20;99.90
52867;DHT22;38739;53.324;6.862;2023-01-16T11:03:50;4.20;99.90
52867;DHT22;38739;53.324;6.862;2023-01-16T11:06:26;4.20;99.90
52867;DHT22;38739;53.324;6.862;2023-01-16T11:09:00;4.20;99.90
52867;DHT22;38739;53.324;6.862;2023-01-16T11:11:28;4.20;99.90
52867;DHT22;38739;53.324;6.862;2023-01-16T11:14:19;4.20;99.90
52867;DHT22;38739;53.324;6.862;2023-01-16T11:19:58;4.20;99.90
52867;DHT22;38739;53.324;6.862;2023-01-16T11:22:25;4.20;99.90
52867;DHT22;38739;53.324;6.862;2023-01-16T11:24:58;4.10;99.90
52867;DHT22;38739;53.324;6.862;2023-01-16T11:27:29;4.10;99.90
52867;DHT22;38739;53.324;6.862;2023-01-16T11:29:57;4.10;99.90
52867;DHT22;38739;53.324;6.862;2023-01-16T11:32:24;4.00;99.90
52867;DHT22;38739;53.324;6.862;2023-01-16T11:34:57;4.00;99.90
52867;DHT22;38739;53.324;6.862;2023-01-16T11:37:27;3.90;99.90
52867;DHT22;38739;53.324;6.862;2023-01-16T11:39:54;3.90;99.90
52867;DHT22;38739;53.324;6.862;2023-01-16T11:42:21;3.90;99.90
52867;DHT22;38739;53.324;6.862;2023-01-16T11:45:19;3.80;99.90
52867;DHT22;38739;53.324;6.862;2023-01-16T11:48:08;3.90;99.90
52867;DHT22;38739;53.324;6.862;2023-01-16T11:50:55;3.90;99.90
52867;DHT22;38739;53.324;6.862;2023-01-16T11:53:21;3.90;99.90
52867;DHT22;38739;53.324;6.862;2023-01-16T11:56:08;3.90;99.90
52867;DHT22;38739;53.324;6.862;2023-01-16T12:02:15;3.90;99.90
52867;DHT22;38739;53.324;6.862;2023-01-16T12:13:07;3.90;99.90
52867;DHT22;38739;53.324;6.862;2023-01-16T12:16:01;4.00;99.90
52867;DHT22;38739;53.324;6.862;2023-01-16T12:21:01;3.90;99.90
52867;DHT22;38739;53.324;6.862;2023-01-16T12:26:21;4.00;99.90
52867;DHT22;38739;53.324;6.862;2023-01-16T12:34:51;4.00;99.90
52867;DHT22;38739;53.324;6.862;2023-01-16T12:37:33;3.90;99.90
52867;DHT22;38739;53.324;6.862;2023-01-16T12:40:26;4.00;99.90
52867;DHT22;38739;53.324;6.862;2023-01-16T12:43:04;4.00;99.90
52867;DHT22;38739;53.324;6.862;2023-01-16T12:45:58;4.00;99.90
52867;DHT22;38739;53.324;6.862;2023-01-16T12:49:01;4.00;99.90
52867;DHT22;38739;53.324;6.862;2023-01-16T12:59:54;4.10;99.90
52867;DHT22;38739;53.324;6.862;2023-01-16T13:05:25;4.10;99.90
52867;DHT22;38739;53.324;6.862;2023-01-16T13:08:13;4.20;99.90
52867;DHT22;38739;53.324;6.862;2023-01-16T13:10:44;4.20;99.90
52867;DHT22;38739;53.324;6.862;2023-01-16T13:13:42;4.20;99.90
52867;DHT22;38739;53.324;6.862;2023-01-16T13:16:25;4.20;99.90
52867;DHT22;38739;53.324;6.862;2023-01-16T13:19:00;4.20;99.90
52867;DHT22;38739;53.324;6.862;2023-01-16T13:21:34;4.20;99.90
52867;DHT22;38739;53.324;6.862;2023-01-16T13:24:22;4.30;99.90
52867;DHT22;38739;53.324;6.862;2023-01-16T13:26:53;4.20;99.90
52867;DHT22;38739;53.324;6.862;2023-01-16T13:29:31;4.30;99.90
52867;DHT22;38739;53.324;6.862;2023-01-16T13:34:43;4.30;99.90
52867;DHT22;38739;53.324;6.862;2023-01-16T13:42:57;4.30;99.90
52867;DHT22;38739;53.324;6.862;2023-01-16T13:45:44;4.30;99.90
52867;DHT22;38739;53.324;6.862;2023-01-16T13:48:18;4.30;99.90
52867;DHT22;38739;53.324;6.862;2023-01-16T13:50:57;4.30;99.90
52867;DHT22;38739;53.324;6.862;2023-01-16T13:53:24;4.30;99.90
52867;DHT22;38739;53.324;6.862;2023-01-16T13:56:02;4.30;99.90
52867;DHT22;38739;53.324;6.862;2023-01-16T13:58:30;4.30;99.90
52867;DHT22;38739;53.324;6.862;2023-01-16T14:00:59;4.30;99.90
52867;DHT22;38739;53.324;6.862;2023-01-16T14:03:33;4.40;99.90
52867;DHT22;38739;53.324;6.862;2023-01-16T14:20:42;4.40;99.90
52867;DHT22;38739;53.324;6.862;2023-01-16T14:23:25;4.40;99.90
52867;DHT22;38739;53.324;6.862;2023-01-16T14:28:56;4.40;99.90
52867;DHT22;38739;53.324;6.862;2023-01-16T14:31:24;4.40;99.90
52867;DHT22;38739;53.324;6.862;2023-01-16T14:33:53;4.40;99.90
52867;DHT22;38739;53.324;6.862;2023-01-16T14:36:22;4.40;99.90
52867;DHT22;38739;53.324;6.862;2023-01-16T14:38:49;4.40;99.90
52867;DHT22;38739;53.324;6.862;2023-01-16T14:41:23;4.40;99.90
52867;DHT22;38739;53.324;6.862;2023-01-16T14:47:44;4.40;99.90
52867;DHT22;38739;53.324;6.862;2023-01-16T14:50:14;4.40;99.90
52867;DHT22;38739;53.324;6.862;2023-01-16T14:53:04;4.40;99.90
52867;DHT22;38739;53.324;6.862;2023-01-16T14:56:03;4.40;99.90
52867;DHT22;38739;53.324;6.862;2023-01-16T14:59:40;4.40;99.90
52867;DHT22;38739;53.324;6.862;2023-01-16T15:08:07;4.40;99.90
52867;DHT22;38739;53.324;6.862;2023-01-16T15:10:14;4.40;99.90
52867;DHT22;38739;53.324;6.862;2023-01-16T15:12:42;4.40;99.90
52867;DHT22;38739;53.324;6.862;2023-01-16T15:15:28;4.40;99.90
52867;DHT22;38739;53.324;6.862;2023-01-16T15:17:57;4.40;99.90
52867;DHT22;38739;53.324;6.862;2023-01-16T15:20:45;4.50;99.90
52867;DHT22;38739;53.324;6.862;2023-01-16T15:23:35;4.40;99.90
52867;DHT22;38739;53.324;6.862;2023-01-16T15:31:14;4.40;99.90
52867;DHT22;38739;53.324;6.862;2023-01-16T15:33:41;4.40;99.90
52867;DHT22;38739;53.324;6.862;2023-01-16T15:36:20;4.40;99.90
52867;DHT22;38739;53.324;6.862;2023-01-16T15:38:51;4.40;99.90
52867;DHT22;38739;53.324;6.862;2023-01-16T15:41:21;4.40;99.90
52867;DHT22;38739;53.324;6.862;2023-01-16T15:44:20;4.40;99.90
52867;DHT22;38739;53.324;6.862;2023-01-16T15:52:29;4.40;99.90
52867;DHT22;38739;53.324;6.862;2023-01-16T15:54:55;4.40;99.90
52867;DHT22;38739;53.324;6.862;2023-01-16T15:57:21;4.40;99.90
52867;DHT22;38739;53.324;6.862;2023-01-16T15:59:54;4.40;99.90
52867;DHT22;38739;53.324;6.862;2023-01-16T16:02:23;4.40;99.90
52867;DHT22;38739;53.324;6.862;2023-01-16T16:04:53;4.40;99.90
52867;DHT22;38739;53.324;6.862;2023-01-16T16:07:20;4.40;99.90
52867;DHT22;38739;53.324;6.862;2023-01-16T16:09:52;4.40;99.90
52867;DHT22;38739;53.324;6.862;2023-01-16T16:12:19;4.40;99.90
52867;DHT22;38739;53.324;6.862;2023-01-16T16:14:45;4.40;99.90
52867;DHT22;38739;53.324;6.862;2023-01-16T16:17:32;4.40;99.90
52867;DHT22;38739;53.324;6.862;2023-01-16T16:23:00;4.40;99.90
52867;DHT22;38739;53.324;6.862;2023-01-16T16:34:12;4.40;99.90
52867;DHT22;38739;53.324;6.862;2023-01-16T16:36:44;4.40;99.90
52867;DHT22;38739;53.324;6.862;2023-01-16T16:47:37;4.40;99.90
52867;DHT22;38739;53.324;6.862;2023-01-16T16:50:34;4.40;99.90
52867;DHT22;38739;53.324;6.862;2023-01-16T16:53:12;4.40;99.90
52867;DHT22;38739;53.324;6.862;2023-01-16T16:55:40;4.40;99.90
52867;DHT22;38739;53.324;6.862;2023-01-16T16:58:17;4.40;99.90
52867;DHT22;38739;53.324;6.862;2023-01-16T17:00:45;4.40;99.90
52867;DHT22;38739;53.324;6.862;2023-01-16T17:03:23;4.40;99.90
52867;DHT22;38739;53.324;6.862;2023-01-16T17:05:50;4.40;99.90
52867;DHT22;38739;53.324;6.862;2023-01-16T17:08:26;4.40;99.90
52867;DHT22;38739;53.324;6.862;2023-01-16T17:10:56;4.30;99.90
52867;DHT22;38739;53.324;6.862;2023-01-16T17:13:23;4.40;99.90
52867;DHT22;38739;53.324;6.862;2023-01-16T17:15:53;4.30;99.90
52867;DHT22;38739;53.324;6.862;2023-01-16T17:18:19;4.30;99.90
52867;DHT22;38739;53.324;6.862;2023-01-16T17:20:45;4.30;99.90
52867;DHT22;38739;53.324;6.862;2023-01-16T17:23:13;4.30;99.90
52867;DHT22;38739;53.324;6.862;2023-01-16T17:25:40;4.30;99.90
52867;DHT22;38739;53.324;6.862;2023-01-16T17:28:06;4.30;99.90
52867;DHT22;38739;53.324;6.862;2023-01-16T17:30:32;4.30;99.90
52867;DHT22;38739;53.324;6.862;2023-01-16T17:33:18;4.30;99.90
52867;DHT22;38739;53.324;6.862;2023-01-16T17:35:49;4.30;99.90
52867;DHT22;38739;53.324;6.862;2023-01-16T17:38:33;4.20;99.90
52867;DHT22;38739;53.324;6.862;2023-01-16T17:40:58;4.20;99.90
52867;DHT22;38739;53.324;6.862;2023-01-16T17:43:25;4.30;99.90
52867;DHT22;38739;53.324;6.862;2023-01-16T17:46:12;4.30;99.90
52867;DHT22;38739;53.324;6.862;2023-01-16T17:48:38;4.20;99.90
52867;DHT22;38739;53.324;6.862;2023-01-16T17:51:04;4.30;99.90
52867;DHT22;38739;53.324;6.862;2023-01-16T17:53:31;4.30;99.90
52867;DHT22;38739;53.324;6.862;2023-01-16T17:55:58;4.20;99.90
52867;DHT22;38739;53.324;6.862;2023-01-16T18:01:01;4.20;99.90
52867;DHT22;38739;53.324;6.862;2023-01-16T18:03:28;4.30;99.90
52867;DHT22;38739;53.324;6.862;2023-01-16T18:06:02;4.20;99.90
52867;DHT22;38739;53.324;6.862;2023-01-16T18:08:28;4.20;99.90
52867;DHT22;38739;53.324;6.862;2023-01-16T18:10:54;4.20;99.90
52867;DHT22;38739;53.324;6.862;2023-01-16T18:13:20;4.20;99.90
52867;DHT22;38739;53.324;6.862;2023-01-16T18:16:05;4.20;99.90
52867;DHT22;38739;53.324;6.862;2023-01-16T18:18:50;4.20;99.90
52867;DHT22;38739;53.324;6.862;2023-01-16T18:21:15;4.20;99.90
52867;DHT22;38739;53.324;6.862;2023-01-16T18:23:59;4.20;99.90
52867;DHT22;38739;53.324;6.862;2023-01-16T18:26:25;4.20;99.90
52867;DHT22;38739;53.324;6.862;2023-01-16T18:28:51;4.20;99.90
52867;DHT22;38739;53.324;6.862;2023-01-16T18:31:19;4.20;99.90
52867;DHT22;38739;53.324;6.862;2023-01-16T18:33:45;4.20;99.90
52867;DHT22;38739;53.324;6.862;2023-01-16T18:36:12;4.20;99.90
52867;DHT22;38739;53.324;6.862;2023-01-16T18:38:38;4.20;99.90
52867;DHT22;38739;53.324;6.862;2023-01-16T18:41:22;4.20;99.90
52867;DHT22;38739;53.324;6.862;2023-01-16T18:44:07;4.20;99.90
52867;DHT22;38739;53.324;6.862;2023-01-16T18:46:53;4.20;99.90
52867;DHT22;38739;53.324;6.862;2023-01-16T18:49:38;4.10;99.90
52867;DHT22;38739;53.324;6.862;2023-01-16T18:52:22;4.20;99.90
52867;DHT22;38739;53.324;6.862;2023-01-16T18:55:11;4.20;99.90
52867;DHT22;38739;53.324;6.862;2023-01-16T18:57:57;4.20;99.90
52867;DHT22;38739;53.324;6.862;2023-01-16T19:00:42;4.20;99.90
52867;DHT22;38739;53.324;6.862;2023-01-16T19:03:26;4.20;99.90
52867;DHT22;38739;53.324;6.862;2023-01-16T19:05:53;4.20;99.90